createdAt,value
2022-09-20T00:01:21.089Z,6.55
2022-09-20T00:03:51.928Z,6.00
2022-09-20T00:06:22.280Z,3.78
2022-09-20T00:08:50.561Z,4.90
2022-09-20T00:11:20.876Z,5.28
2022-09-20T00:13:50.812Z,5.22
2022-09-20T00:16:23.414Z,5.93
2022-09-20T00:18:51.844Z,4.72
2022-09-20T00:21:21.490Z,4.90
2022-09-20T00:23:49.458Z,5.30
2022-09-20T00:26:17.567Z,3.72
2022-09-20T00:28:47.180Z,5.18
2022-09-20T00:31:21.050Z,4.40
2022-09-20T00:34:06.512Z,4.40
2022-09-20T00:36:34.493Z,4.90
2022-09-20T00:39:03.580Z,4.63
2022-09-20T00:41:33.434Z,4.38
2022-09-20T00:44:01.896Z,4.43
2022-09-20T00:46:38.699Z,4.75
2022-09-20T00:49:13.401Z,4.03
2022-09-20T00:51:44.217Z,3.50
2022-09-20T00:54:20.170Z,3.67
2022-09-20T00:56:49.883Z,3.05
2022-09-20T00:59:22.882Z,3.40
2022-09-20T01:01:54.726Z,3.58
2022-09-20T01:04:27.158Z,2.50
2022-09-20T01:06:58.593Z,1.85
2022-09-20T01:09:26.551Z,1.90
2022-09-20T01:11:57.036Z,1.90
2022-09-20T01:14:27.819Z,2.08
2022-09-20T01:17:00.617Z,1.80
2022-09-20T01:19:35.850Z,1.63
2022-09-20T01:22:09.198Z,1.67
2022-09-20T01:24:48.952Z,1.25
2022-09-20T01:27:24.746Z,1.15
2022-09-20T01:30:05.958Z,1.00
2022-09-20T01:32:45.490Z,1.30
2022-09-20T01:35:14.361Z,1.30
2022-09-20T01:37:52.846Z,0.98
2022-09-20T01:40:28.113Z,0.80
2022-09-20T01:43:03.842Z,0.98
2022-09-20T01:45:34.107Z,0.95
2022-09-20T01:48:13.405Z,0.90
2022-09-20T01:51:00.381Z,0.70
2022-09-20T01:53:57.920Z,0.73
2022-09-20T01:57:04.769Z,0.82
2022-09-20T01:59:50.975Z,0.90
2022-09-20T02:02:57.885Z,0.95
2022-09-20T02:05:59.129Z,0.90
2022-09-20T02:08:41.897Z,0.50
2022-09-20T02:11:16.232Z,0.60
2022-09-20T02:14:04.639Z,0.60
2022-09-20T02:16:45.717Z,0.47
2022-09-20T02:19:39.061Z,0.77
2022-09-20T02:22:19.727Z,0.50
2022-09-20T02:24:54.527Z,0.77
2022-09-20T02:27:27.926Z,0.70
2022-09-20T02:30:06.881Z,0.77
2022-09-20T02:32:52.402Z,0.40
2022-09-20T02:35:34.226Z,0.50
2022-09-20T02:38:12.500Z,0.50
2022-09-20T02:40:53.745Z,0.70
2022-09-20T02:43:31.597Z,0.70
2022-09-20T02:46:05.031Z,0.40
2022-09-20T02:48:48.286Z,0.45
2022-09-20T02:51:25.458Z,0.50
2022-09-20T02:54:07.277Z,0.55
2022-09-20T02:56:43.875Z,0.50
2022-09-20T02:59:23.841Z,0.60
2022-09-20T03:02:02.327Z,0.50
2022-09-20T03:04:45.068Z,0.70
2022-09-20T03:07:33.280Z,0.70
2022-09-20T03:10:12.130Z,1.05
2022-09-20T03:12:50.528Z,0.95
2022-09-20T03:15:28.522Z,1.40
2022-09-20T03:18:07.496Z,0.82
2022-09-20T03:20:47.208Z,1.13
2022-09-20T03:23:35.560Z,1.02
2022-09-20T03:26:15.701Z,1.50
2022-09-20T03:28:57.225Z,1.42
2022-09-20T03:31:53.647Z,2.38
2022-09-20T03:34:40.413Z,2.47
2022-09-20T03:37:23.945Z,2.30
2022-09-20T03:40:37.804Z,2.42
2022-09-20T03:43:19.032Z,4.18
2022-09-20T03:45:58.421Z,4.75
2022-09-20T03:48:54.258Z,5.30
2022-09-20T03:51:31.698Z,6.05
2022-09-20T03:54:38.287Z,6.40
2022-09-20T03:57:36.121Z,4.57
2022-09-20T04:00:23.492Z,5.95
2022-09-20T04:03:22.172Z,7.07
2022-09-20T04:06:01.945Z,6.25
2022-09-20T04:08:49.237Z,7.07
2022-09-20T04:11:24.246Z,8.43
2022-09-20T04:13:59.283Z,6.80
2022-09-20T04:16:36.513Z,8.73
2022-09-20T04:19:12.088Z,8.65
2022-09-20T04:21:48.051Z,8.30
2022-09-20T04:24:23.750Z,8.93
2022-09-20T04:26:56.006Z,9.32
2022-09-20T04:29:34.679Z,9.13
2022-09-20T04:32:14.755Z,10.38
2022-09-20T04:35:07.197Z,10.57
2022-09-20T04:37:38.467Z,10.13
2022-09-20T04:40:15.995Z,11.35
2022-09-20T04:43:18.462Z,10.10
2022-09-20T04:46:09.549Z,10.85
2022-09-20T04:49:00.648Z,10.55
2022-09-20T04:51:59.036Z,10.15
2022-09-20T04:55:05.770Z,10.98
2022-09-20T04:58:12.575Z,12.43
2022-09-20T05:00:58.547Z,9.85
2022-09-20T05:03:53.161Z,10.55
2022-09-20T05:06:45.682Z,11.07
2022-09-20T05:09:34.196Z,11.35
2022-09-20T05:12:34.340Z,11.50
2022-09-20T05:15:31.466Z,10.82
2022-09-20T05:18:19.569Z,10.25
2022-09-20T05:21:01.719Z,10.55
2022-09-20T05:23:58.364Z,10.23
2022-09-20T05:26:38.708Z,10.27
2022-09-20T05:29:14.412Z,10.88
2022-09-20T05:31:50.902Z,10.52
2022-09-20T05:34:29.263Z,11.23
2022-09-20T05:37:08.040Z,10.00
2022-09-20T05:39:41.678Z,10.85
2022-09-20T05:42:18.684Z,9.70
2022-09-20T05:44:57.298Z,8.15
2022-09-20T05:47:36.059Z,8.40
2022-09-20T05:50:35.230Z,7.25
2022-09-20T05:53:20.721Z,6.30
2022-09-20T05:56:01.623Z,6.10
2022-09-20T05:58:45.872Z,5.43
2022-09-20T06:01:21.433Z,5.55
2022-09-20T06:03:55.863Z,5.57
2022-09-20T06:06:32.723Z,5.30
2022-09-20T06:09:24.007Z,5.60
2022-09-20T06:12:23.536Z,4.78
2022-09-20T06:15:01.858Z,4.70
2022-09-20T06:17:36.633Z,6.15
2022-09-20T06:20:19.202Z,5.10
2022-09-20T06:22:50.867Z,4.68
2022-09-20T06:25:27.778Z,5.53
2022-09-20T06:27:59.708Z,5.03
2022-09-20T06:30:31.125Z,4.93
2022-09-20T06:33:01.161Z,4.22
2022-09-20T06:35:38.327Z,4.53
2022-09-20T06:38:39.598Z,4.72
2022-09-20T06:41:30.545Z,5.10
2022-09-20T06:44:01.061Z,4.32
2022-09-20T06:46:30.612Z,3.92
2022-09-20T06:48:59.844Z,3.65
2022-09-20T06:51:29.464Z,4.57
2022-09-20T06:53:58.016Z,3.60
2022-09-20T06:56:30.917Z,3.22
2022-09-20T06:58:59.221Z,4.18
2022-09-20T07:01:30.570Z,2.80
2022-09-20T07:03:58.818Z,2.75
2022-09-20T07:06:27.363Z,2.30
2022-09-20T07:08:55.225Z,2.42
2022-09-20T07:11:23.658Z,2.53
2022-09-20T07:13:54.468Z,1.83
2022-09-20T07:16:22.800Z,2.08
2022-09-20T07:18:52.391Z,2.30
2022-09-20T07:21:22.115Z,1.88
2022-09-20T07:23:50.060Z,2.25
2022-09-20T07:26:20.155Z,1.95
2022-09-20T07:28:49.470Z,1.45
2022-09-20T07:31:19.817Z,1.20
2022-09-20T07:33:48.191Z,1.25
2022-09-20T07:36:16.631Z,1.45
2022-09-20T07:38:49.079Z,1.33
2022-09-20T07:41:19.122Z,1.58
2022-09-20T07:43:47.559Z,1.40
2022-09-20T07:46:15.514Z,1.20
2022-09-20T07:48:44.691Z,1.80
2022-09-20T07:51:14.452Z,4.07
2022-09-20T07:53:42.714Z,1.60
2022-09-20T07:56:16.284Z,1.38
2022-09-20T07:58:47.402Z,1.17
2022-09-20T08:01:21.105Z,1.45
2022-09-20T08:03:51.165Z,1.40
2022-09-20T08:06:21.414Z,1.85
2022-09-20T08:08:49.495Z,1.80
2022-09-20T08:11:19.678Z,1.70
2022-09-20T08:16:40.524Z,1.52
2022-09-20T08:19:12.806Z,1.40
2022-09-20T08:21:41.055Z,1.60
2022-09-20T08:24:08.919Z,1.13
2022-09-20T08:26:37.138Z,1.70
2022-09-20T08:29:06.415Z,2.30
2022-09-20T08:31:37.487Z,2.05
2022-09-20T08:34:10.537Z,2.45
2022-09-20T08:36:41.846Z,2.28
2022-09-20T08:42:05.611Z,2.72
2022-09-20T08:44:36.895Z,4.38
2022-09-20T08:47:13.722Z,2.55
2022-09-20T08:49:46.210Z,2.53
2022-09-20T08:52:18.964Z,1.95
2022-09-20T08:54:47.516Z,2.15
2022-09-20T08:57:18.378Z,1.90
2022-09-20T08:59:46.625Z,2.17
2022-09-20T09:02:19.909Z,2.00
2022-09-20T09:04:51.545Z,1.55
2022-09-20T09:07:22.667Z,1.88
2022-09-20T09:09:55.417Z,1.67
2022-09-20T09:12:25.962Z,1.75
2022-09-20T09:14:59.351Z,1.00
2022-09-20T09:17:29.063Z,1.75
2022-09-20T09:20:02.044Z,1.60
2022-09-20T09:22:32.853Z,1.27
2022-09-20T09:25:23.836Z,2.00
2022-09-20T09:27:55.088Z,1.83
2022-09-20T09:30:26.321Z,3.10
2022-09-20T09:32:54.716Z,1.75
2022-09-20T09:35:31.577Z,1.40
2022-09-20T09:38:01.642Z,2.13
2022-09-20T09:40:32.641Z,2.45
2022-09-20T09:43:02.673Z,2.40
2022-09-20T09:45:34.803Z,2.80
2022-09-20T09:48:05.116Z,2.40
2022-09-20T09:50:35.302Z,2.50
2022-09-20T09:53:10.713Z,3.10
2022-09-20T09:55:56.166Z,2.00
2022-09-20T09:58:36.661Z,1.95
2022-09-20T10:01:07.784Z,2.10
2022-09-20T10:03:47.649Z,2.20
2022-09-20T10:06:23.536Z,1.95
2022-09-20T10:09:04.700Z,2.55
2022-09-20T10:11:47.343Z,2.08
2022-09-20T10:14:29.577Z,1.50
2022-09-20T10:17:17.095Z,1.40
2022-09-20T10:19:57.602Z,1.60
2022-09-20T10:22:37.078Z,1.75
2022-09-20T10:25:13.084Z,1.45
2022-09-20T10:27:54.703Z,1.15
2022-09-20T10:30:24.669Z,1.08
2022-09-20T10:33:05.732Z,1.00
2022-09-20T10:35:52.656Z,1.10
2022-09-20T10:38:29.165Z,1.30
2022-09-20T10:41:33.342Z,1.20
2022-09-20T10:44:10.992Z,1.55
2022-09-20T10:46:53.145Z,1.55
2022-09-20T10:49:35.246Z,1.25
2022-09-20T10:52:25.280Z,1.92
2022-09-20T10:55:09.101Z,2.10
2022-09-20T10:58:01.435Z,2.20
2022-09-20T11:00:41.615Z,1.25
2022-09-20T11:03:22.677Z,2.05
2022-09-20T11:06:03.047Z,1.65
2022-09-20T11:08:35.078Z,0.85
2022-09-20T11:11:08.332Z,1.20
2022-09-20T11:13:41.958Z,1.30
2022-09-20T11:16:15.397Z,1.45
2022-09-20T11:18:50.543Z,1.10
2022-09-20T11:21:25.558Z,0.77
2022-09-20T11:23:58.521Z,0.85
2022-09-20T11:26:36.094Z,0.68
2022-09-20T11:29:13.562Z,0.90
2022-09-20T11:31:45.229Z,0.90
2022-09-20T11:34:18.916Z,0.98
2022-09-20T11:36:52.293Z,1.10
2022-09-20T11:39:26.388Z,1.05
2022-09-20T11:41:59.940Z,0.80
2022-09-20T11:44:27.969Z,0.98
2022-09-20T11:47:00.671Z,0.70
2022-09-20T11:49:31.962Z,0.70
2022-09-20T11:52:21.148Z,0.93
2022-09-20T11:55:15.408Z,1.38
2022-09-20T11:57:45.124Z,0.80
2022-09-20T12:00:13.828Z,1.20
2022-09-20T12:03:08.870Z,0.55
2022-09-20T12:05:40.110Z,0.75
2022-09-20T12:08:19.978Z,0.80
2022-09-20T12:11:01.835Z,0.88
2022-09-20T12:13:33.058Z,0.70
2022-09-20T12:16:04.646Z,0.70
2022-09-20T12:18:39.674Z,0.52
2022-09-20T12:21:16.532Z,0.50
2022-09-20T12:24:23.813Z,0.50
2022-09-20T12:27:00.551Z,0.30
2022-09-20T12:29:57.288Z,0.80
2022-09-20T12:32:55.052Z,0.70
2022-09-20T12:35:54.398Z,0.85
2022-09-20T12:38:45.561Z,0.50
2022-09-20T12:41:17.313Z,0.50
2022-09-20T12:44:01.451Z,0.60
2022-09-20T12:46:55.127Z,0.80
2022-09-20T12:50:08.273Z,0.60
2022-09-20T12:52:57.607Z,0.60
2022-09-20T12:55:40.820Z,0.60
2022-09-20T12:58:32.981Z,1.00
2022-09-20T13:01:45.358Z,1.35
2022-09-20T13:04:53.566Z,0.80
2022-09-20T13:07:38.907Z,0.90
2022-09-20T13:10:26.297Z,0.70
2022-09-20T13:13:00.304Z,0.60
2022-09-20T13:15:28.878Z,0.50
2022-09-20T13:18:00.776Z,0.55
2022-09-20T13:20:34.934Z,0.80
2022-09-20T13:23:05.317Z,0.57
2022-09-20T13:25:34.927Z,0.52
2022-09-20T13:28:09.229Z,0.52
2022-09-20T13:30:37.678Z,0.55
2022-09-20T13:33:24.906Z,1.00
2022-09-20T13:35:57.201Z,1.40
2022-09-20T13:38:29.904Z,1.73
2022-09-20T13:41:06.285Z,1.20
2022-09-20T13:43:38.685Z,1.30
2022-09-20T13:46:11.590Z,1.80
2022-09-20T13:48:40.359Z,1.98
2022-09-20T13:51:19.278Z,1.95
2022-09-20T13:53:48.075Z,1.95
2022-09-20T13:56:21.501Z,1.65
2022-09-20T13:58:50.547Z,2.40
2022-09-20T14:01:24.524Z,1.90
2022-09-20T14:03:54.001Z,2.20
2022-09-20T14:06:29.730Z,1.75
2022-09-20T14:09:00.001Z,2.55
2022-09-20T14:11:31.116Z,2.00
2022-09-20T14:14:01.559Z,1.48
2022-09-20T14:16:32.643Z,1.02
2022-09-20T14:19:01.798Z,1.15
2022-09-20T14:21:34.390Z,1.05
2022-09-20T14:24:06.404Z,0.80
2022-09-20T14:26:36.354Z,0.50
2022-09-20T14:29:29.017Z,0.40
2022-09-20T14:31:59.136Z,0.40
2022-09-20T14:34:27.272Z,0.30
2022-09-20T14:37:06.310Z,0.52
2022-09-20T14:39:37.232Z,0.50
2022-09-20T14:42:16.002Z,0.50
2022-09-20T14:44:43.918Z,0.50
2022-09-20T14:47:15.493Z,1.65
2022-09-20T14:49:45.267Z,0.40
2022-09-20T14:52:45.370Z,0.50
2022-09-20T14:55:28.531Z,0.70
2022-09-20T14:58:02.014Z,0.70
2022-09-20T15:00:30.713Z,0.73
2022-09-20T15:03:08.183Z,1.65
2022-09-20T15:05:36.109Z,0.68
2022-09-20T15:08:04.278Z,0.70
2022-09-20T15:10:33.498Z,0.60
2022-09-20T15:13:01.299Z,0.70
2022-09-20T15:15:29.272Z,0.50
2022-09-20T15:17:57.100Z,0.93
2022-09-20T15:20:25.491Z,1.10
2022-09-20T15:22:53.382Z,0.90
2022-09-20T15:25:22.250Z,1.30
2022-09-20T15:27:51.837Z,1.25
2022-09-20T15:30:21.138Z,1.50
2022-09-20T15:32:49.617Z,1.20
2022-09-20T15:35:17.533Z,1.20
2022-09-20T15:37:45.537Z,0.82
2022-09-20T15:40:13.645Z,0.80
2022-09-20T15:42:42.050Z,0.50
2022-09-20T15:45:12.679Z,0.95
2022-09-20T15:47:40.771Z,1.20
2022-09-20T15:50:09.989Z,1.55
2022-09-20T15:52:39.871Z,0.85
2022-09-20T15:55:09.158Z,1.35
2022-09-20T15:57:37.016Z,0.85
2022-09-20T16:00:05.714Z,1.95
2022-09-20T16:02:37.946Z,1.50
2022-09-20T16:05:06.295Z,2.08
2022-09-20T16:07:34.140Z,2.65
2022-09-20T16:10:01.948Z,1.80
2022-09-20T16:12:29.792Z,2.00
2022-09-20T16:14:57.616Z,1.90
2022-09-20T16:17:45.713Z,4.50
2022-09-20T16:20:13.938Z,7.90
2022-09-20T16:22:41.838Z,6.18
2022-09-20T16:25:09.981Z,4.10
2022-09-20T16:27:37.767Z,3.80
2022-09-20T16:30:06.714Z,11.52
2022-09-20T16:32:34.584Z,7.65
2022-09-20T16:35:07.123Z,9.88
2022-09-20T16:37:37.028Z,5.20
2022-09-20T16:40:05.353Z,3.97
2022-09-20T16:42:33.447Z,1.90
2022-09-20T16:45:01.304Z,1.90
2022-09-20T16:47:29.696Z,2.08
2022-09-20T16:49:58.413Z,1.70
2022-09-20T16:52:26.366Z,1.85
2022-09-20T16:54:57.062Z,2.25
2022-09-20T16:57:25.771Z,2.38
2022-09-20T16:59:56.669Z,1.42
2022-09-20T17:02:51.147Z,2.50
2022-09-20T17:05:18.936Z,3.28
2022-09-20T17:07:47.015Z,1.83
2022-09-20T17:10:16.818Z,2.65
2022-09-20T17:41:51.507Z,1.23
2022-09-20T17:44:19.812Z,1.40
2022-09-20T17:46:49.597Z,1.60
2022-09-20T17:49:19.498Z,1.70
2022-09-20T17:51:49.103Z,1.50
2022-09-20T17:54:17.165Z,1.27
2022-09-20T17:56:46.564Z,2.03
2022-09-20T17:59:17.312Z,1.63
2022-09-20T18:01:47.099Z,2.47
2022-09-20T18:04:15.972Z,1.73
2022-09-20T18:06:47.261Z,2.55
2022-09-20T18:09:17.248Z,2.67
2022-09-20T18:11:48.796Z,3.55
2022-09-20T18:14:20.322Z,3.35
2022-09-20T18:16:48.491Z,4.53
2022-09-20T18:19:16.448Z,3.60
2022-09-20T18:21:44.900Z,4.20
2022-09-20T18:24:13.201Z,3.80
2022-09-20T18:26:41.634Z,3.40
2022-09-20T18:29:11.868Z,3.47
2022-09-20T18:31:45.354Z,3.00
2022-09-20T18:34:17.731Z,3.35
2022-09-20T18:36:48.428Z,3.42
2022-09-20T18:39:16.321Z,2.30
2022-09-20T18:41:44.784Z,2.03
2022-09-20T18:44:14.531Z,2.22
2022-09-20T18:46:43.813Z,3.63
2022-09-20T18:49:15.076Z,1.95
2022-09-20T18:51:43.996Z,1.60
2022-09-20T18:54:12.788Z,1.80
2022-09-20T18:56:42.149Z,1.52
2022-09-20T18:59:15.787Z,1.88
2022-09-20T19:02:03.072Z,2.88
2022-09-20T19:04:46.606Z,4.60
2022-09-20T19:07:20.083Z,4.65
2022-09-20T19:09:53.613Z,4.78
2022-09-20T19:12:27.307Z,5.57
2022-09-20T19:15:07.029Z,5.43
2022-09-20T19:17:53.070Z,5.85
2022-09-20T19:20:29.323Z,6.25
2022-09-20T19:23:07.702Z,5.25
2022-09-20T19:25:44.030Z,6.30
2022-09-20T19:28:14.061Z,8.10
2022-09-20T19:30:42.895Z,6.30
2022-09-20T19:33:17.898Z,6.13
2022-09-20T19:35:49.972Z,4.22
2022-09-20T19:38:34.282Z,4.50
2022-09-20T19:41:16.093Z,3.72
2022-09-20T19:43:57.980Z,3.55
2022-09-20T19:46:41.217Z,2.85
2022-09-20T19:49:15.498Z,4.15
2022-09-20T19:51:44.977Z,3.45
2022-09-20T19:54:14.868Z,3.42
2022-09-20T19:56:52.936Z,4.35
2022-09-20T19:59:22.770Z,3.60
2022-09-20T20:01:52.242Z,4.55
2022-09-20T20:04:22.740Z,4.05
2022-09-20T20:07:00.744Z,4.82
2022-09-20T20:09:38.477Z,3.78
2022-09-20T20:12:14.628Z,3.28
2022-09-20T20:14:55.349Z,3.58
2022-09-20T20:17:46.058Z,2.53
2022-09-20T20:20:24.101Z,2.53
2022-09-20T20:23:35.368Z,2.40
2022-09-20T20:26:07.406Z,2.22
2022-09-20T20:28:36.078Z,3.40
2022-09-20T20:31:12.373Z,4.05
2022-09-20T20:33:41.049Z,2.58
2022-09-20T20:36:11.950Z,3.50
2022-09-20T20:38:40.949Z,3.92
2022-09-20T20:41:10.317Z,3.85
2022-09-20T20:43:40.204Z,5.53
2022-09-20T20:46:09.908Z,3.72
2022-09-20T20:48:38.349Z,3.47
2022-09-20T20:51:09.643Z,4.07
2022-09-20T20:53:40.388Z,4.00
2022-09-20T20:56:12.217Z,4.57
2022-09-20T20:58:41.962Z,3.67
2022-09-20T21:01:12.228Z,4.60
2022-09-20T21:03:41.370Z,5.45
2022-09-20T21:06:10.661Z,3.47
2022-09-20T21:08:43.036Z,3.95
2022-09-20T21:11:16.409Z,3.20
2022-09-20T21:13:44.234Z,4.40
2022-09-20T21:16:14.004Z,4.53
2022-09-20T21:18:43.305Z,4.30
2022-09-20T21:21:16.674Z,4.07
2022-09-20T21:23:46.887Z,4.30
2022-09-20T21:26:16.246Z,3.92
2022-09-20T21:28:46.217Z,4.60
2022-09-20T21:31:14.500Z,5.68
2022-09-20T21:33:44.083Z,4.40
2022-09-20T21:36:14.004Z,5.68
2022-09-20T21:38:42.576Z,3.92
2022-09-20T21:41:14.186Z,3.97
2022-09-20T21:43:43.489Z,3.35
2022-09-20T21:46:12.348Z,3.65
2022-09-20T21:48:40.512Z,3.17
2022-09-20T21:51:10.793Z,3.08
2022-09-20T21:53:39.581Z,3.63
2022-09-20T21:56:09.765Z,3.10
2022-09-20T21:58:40.055Z,3.00
2022-09-20T22:01:11.572Z,3.30
2022-09-20T22:03:41.843Z,2.45
2022-09-20T22:06:12.376Z,2.65
2022-09-20T22:08:42.194Z,4.13
2022-09-20T22:11:14.928Z,2.67
2022-09-20T22:13:45.441Z,3.13
2022-09-20T22:16:17.192Z,2.17
2022-09-20T22:18:46.123Z,3.47
2022-09-20T22:21:15.486Z,2.97
2022-09-20T22:23:44.272Z,3.65
2022-09-20T22:26:14.411Z,3.20
2022-09-20T22:28:44.265Z,3.03
2022-09-20T22:31:13.875Z,2.67
2022-09-20T22:33:43.748Z,3.15
2022-09-20T22:36:14.119Z,2.40
2022-09-20T22:38:42.694Z,2.60
2022-09-20T22:41:11.574Z,2.90
2022-09-20T22:43:39.682Z,2.45
2022-09-20T22:46:11.737Z,3.55
2022-09-20T22:48:40.516Z,2.28
2022-09-20T22:51:12.999Z,3.10
2022-09-20T22:53:41.748Z,3.00
2022-09-20T22:56:12.318Z,3.05
2022-09-20T22:58:41.457Z,3.22
2022-09-20T23:01:12.952Z,3.20
2022-09-20T23:03:43.090Z,3.13
2022-09-20T23:06:15.753Z,3.35
2022-09-20T23:08:43.831Z,3.05
2022-09-20T23:11:11.728Z,2.47
2022-09-20T23:13:39.688Z,3.10
2022-09-20T23:16:18.672Z,2.33
2022-09-20T23:18:47.256Z,2.90
2022-09-20T23:21:15.792Z,2.42
2022-09-20T23:23:44.277Z,2.55
2022-09-20T23:26:14.816Z,2.05
2022-09-20T23:28:45.148Z,2.17
2022-09-20T23:31:16.817Z,2.70
2022-09-20T23:33:48.116Z,2.15
2022-09-20T23:36:17.201Z,2.45
2022-09-20T23:38:45.740Z,2.47
2022-09-20T23:41:16.269Z,2.80
2022-09-20T23:43:44.278Z,1.98
2022-09-20T23:46:13.885Z,1.77
2022-09-20T23:48:43.522Z,2.33
2022-09-20T23:51:13.616Z,2.22
2022-09-20T23:53:41.961Z,2.40
2022-09-20T23:56:11.059Z,1.70
2022-09-20T23:58:40.424Z,2.20
